sensor_id;sensor_type;location;lat;lon;timestamp;P1;durP1;ratioP1;P2;durP2;ratioP2
20415;SDS011;10367;52.202;5.996;2023-05-20T00:01:20;15.67;;;13.70;;
20415;SDS011;10367;52.202;5.996;2023-05-20T00:03:49;18.83;;;14.87;;
20415;SDS011;10367;52.202;5.996;2023-05-20T00:06:18;21.33;;;14.67;;
20415;SDS011;10367;52.202;5.996;2023-05-20T00:08:47;15.57;;;13.93;;
20415;SDS011;10367;52.202;5.996;2023-05-20T00:11:16;21.47;;;15.33;;
20415;SDS011;10367;52.202;5.996;2023-05-20T00:13:45;20.60;;;14.17;;
20415;SDS011;10367;52.202;5.996;2023-05-20T00:16:14;36.93;;;18.00;;
20415;SDS011;10367;52.202;5.996;2023-05-20T00:18:45;25.30;;;16.00;;
20415;SDS011;10367;52.202;5.996;2023-05-20T00:21:14;23.63;;;15.33;;
20415;SDS011;10367;52.202;5.996;2023-05-20T00:23:43;17.43;;;14.17;;
20415;SDS011;10367;52.202;5.996;2023-05-20T00:26:14;19.83;;;15.60;;
20415;SDS011;10367;52.202;5.996;2023-05-20T00:28:45;17.07;;;12.70;;
20415;SDS011;10367;52.202;5.996;2023-05-20T00:31:14;26.93;;;16.37;;
20415;SDS011;10367;52.202;5.996;2023-05-20T00:33:44;17.67;;;14.57;;
20415;SDS011;10367;52.202;5.996;2023-05-20T00:36:13;20.57;;;15.03;;
20415;SDS011;10367;52.202;5.996;2023-05-20T00:38:42;15.57;;;13.77;;
20415;SDS011;10367;52.202;5.996;2023-05-20T00:41:11;17.83;;;14.37;;
20415;SDS011;10367;52.202;5.996;2023-05-20T00:43:39;15.50;;;13.07;;
20415;SDS011;10367;52.202;5.996;2023-05-20T00:46:08;17.87;;;13.77;;
20415;SDS011;10367;52.202;5.996;2023-05-20T00:48:38;17.70;;;12.73;;
20415;SDS011;10367;52.202;5.996;2023-05-20T00:51:11;22.13;;;15.30;;
20415;SDS011;10367;52.202;5.996;2023-05-20T00:53:41;17.47;;;13.80;;
20415;SDS011;10367;52.202;5.996;2023-05-20T00:56:10;19.00;;;14.50;;
20415;SDS011;10367;52.202;5.996;2023-05-20T00:58:40;18.33;;;14.50;;
20415;SDS011;10367;52.202;5.996;2023-05-20T01:01:08;15.53;;;14.00;;
20415;SDS011;10367;52.202;5.996;2023-05-20T01:03:37;21.43;;;15.20;;
20415;SDS011;10367;52.202;5.996;2023-05-20T01:06:07;21.90;;;14.53;;
20415;SDS011;10367;52.202;5.996;2023-05-20T01:08:37;15.20;;;13.43;;
20415;SDS011;10367;52.202;5.996;2023-05-20T01:11:07;21.17;;;14.83;;
20415;SDS011;10367;52.202;5.996;2023-05-20T01:13:39;15.27;;;13.13;;
20415;SDS011;10367;52.202;5.996;2023-05-20T01:16:13;21.00;;;15.03;;
20415;SDS011;10367;52.202;5.996;2023-05-20T01:18:46;17.40;;;14.63;;
20415;SDS011;10367;52.202;5.996;2023-05-20T01:21:15;20.53;;;14.80;;
20415;SDS011;10367;52.202;5.996;2023-05-20T01:23:47;26.67;;;15.10;;
20415;SDS011;10367;52.202;5.996;2023-05-20T01:26:15;21.60;;;15.57;;
20415;SDS011;10367;52.202;5.996;2023-05-20T01:28:47;14.93;;;13.30;;
20415;SDS011;10367;52.202;5.996;2023-05-20T01:31:17;23.37;;;15.53;;
20415;SDS011;10367;52.202;5.996;2023-05-20T01:33:51;18.17;;;13.60;;
20415;SDS011;10367;52.202;5.996;2023-05-20T01:36:24;26.33;;;16.77;;
20415;SDS011;10367;52.202;5.996;2023-05-20T01:38:55;14.50;;;13.00;;
20415;SDS011;10367;52.202;5.996;2023-05-20T01:41:25;22.07;;;15.60;;
20415;SDS011;10367;52.202;5.996;2023-05-20T01:43:55;18.73;;;15.03;;
20415;SDS011;10367;52.202;5.996;2023-05-20T01:46:24;18.97;;;15.50;;
20415;SDS011;10367;52.202;5.996;2023-05-20T01:48:53;19.13;;;14.83;;
20415;SDS011;10367;52.202;5.996;2023-05-20T01:51:22;20.57;;;15.53;;
20415;SDS011;10367;52.202;5.996;2023-05-20T01:53:50;22.00;;;15.20;;
20415;SDS011;10367;52.202;5.996;2023-05-20T01:56:21;22.53;;;15.97;;
20415;SDS011;10367;52.202;5.996;2023-05-20T01:58:49;19.03;;;14.80;;
20415;SDS011;10367;52.202;5.996;2023-05-20T02:01:18;23.07;;;15.17;;
20415;SDS011;10367;52.202;5.996;2023-05-20T02:03:47;17.33;;;14.50;;
20415;SDS011;10367;52.202;5.996;2023-05-20T02:06:16;16.13;;;13.10;;
20415;SDS011;10367;52.202;5.996;2023-05-20T02:08:45;16.70;;;14.13;;
20415;SDS011;10367;52.202;5.996;2023-05-20T02:11:14;19.93;;;15.00;;
20415;SDS011;10367;52.202;5.996;2023-05-20T02:13:44;18.10;;;14.93;;
20415;SDS011;10367;52.202;5.996;2023-05-20T02:16:16;18.83;;;14.83;;
20415;SDS011;10367;52.202;5.996;2023-05-20T02:18:45;14.93;;;13.13;;
20415;SDS011;10367;52.202;5.996;2023-05-20T02:21:14;19.50;;;14.73;;
20415;SDS011;10367;52.202;5.996;2023-05-20T02:23:43;16.07;;;13.67;;
20415;SDS011;10367;52.202;5.996;2023-05-20T02:26:12;20.33;;;14.03;;
20415;SDS011;10367;52.202;5.996;2023-05-20T02:28:41;20.83;;;14.13;;
20415;SDS011;10367;52.202;5.996;2023-05-20T02:31:16;22.50;;;15.13;;
20415;SDS011;10367;52.202;5.996;2023-05-20T02:33:45;13.50;;;12.13;;
20415;SDS011;10367;52.202;5.996;2023-05-20T02:36:34;17.43;;;13.03;;
20415;SDS011;10367;52.202;5.996;2023-05-20T02:39:03;17.60;;;14.07;;
20415;SDS011;10367;52.202;5.996;2023-05-20T02:41:31;23.47;;;14.87;;
20415;SDS011;10367;52.202;5.996;2023-05-20T02:44:00;16.73;;;14.20;;
20415;SDS011;10367;52.202;5.996;2023-05-20T02:46:31;15.00;;;13.00;;
20415;SDS011;10367;52.202;5.996;2023-05-20T02:49:02;23.13;;;14.50;;
20415;SDS011;10367;52.202;5.996;2023-05-20T02:51:31;21.67;;;13.90;;
20415;SDS011;10367;52.202;5.996;2023-05-20T02:54:01;19.63;;;13.80;;
20415;SDS011;10367;52.202;5.996;2023-05-20T02:56:30;16.63;;;13.40;;
20415;SDS011;10367;52.202;5.996;2023-05-20T02:59:00;20.30;;;14.10;;
20415;SDS011;10367;52.202;5.996;2023-05-20T03:01:30;21.13;;;15.27;;
20415;SDS011;10367;52.202;5.996;2023-05-20T03:04:00;20.70;;;14.40;;
20415;SDS011;10367;52.202;5.996;2023-05-20T03:06:30;21.77;;;14.83;;
20415;SDS011;10367;52.202;5.996;2023-05-20T03:08:59;17.60;;;14.13;;
20415;SDS011;10367;52.202;5.996;2023-05-20T03:11:28;21.47;;;14.93;;
20415;SDS011;10367;52.202;5.996;2023-05-20T03:13:57;22.10;;;15.43;;
20415;SDS011;10367;52.202;5.996;2023-05-20T03:16:27;24.57;;;15.97;;
20415;SDS011;10367;52.202;5.996;2023-05-20T03:18:57;27.17;;;15.60;;
20415;SDS011;10367;52.202;5.996;2023-05-20T03:21:26;19.67;;;14.97;;
20415;SDS011;10367;52.202;5.996;2023-05-20T03:23:55;21.70;;;14.73;;
20415;SDS011;10367;52.202;5.996;2023-05-20T03:26:23;22.53;;;14.40;;
20415;SDS011;10367;52.202;5.996;2023-05-20T03:28:52;14.13;;;12.43;;
20415;SDS011;10367;52.202;5.996;2023-05-20T03:31:21;18.60;;;14.00;;
20415;SDS011;10367;52.202;5.996;2023-05-20T03:33:50;24.00;;;16.07;;
20415;SDS011;10367;52.202;5.996;2023-05-20T03:36:20;27.73;;;16.10;;
20415;SDS011;10367;52.202;5.996;2023-05-20T03:38:49;23.43;;;15.53;;
20415;SDS011;10367;52.202;5.996;2023-05-20T03:41:17;17.03;;;13.97;;
20415;SDS011;10367;52.202;5.996;2023-05-20T03:43:46;18.07;;;13.30;;
20415;SDS011;10367;52.202;5.996;2023-05-20T03:46:18;21.30;;;14.90;;
20415;SDS011;10367;52.202;5.996;2023-05-20T03:48:47;20.23;;;13.77;;
20415;SDS011;10367;52.202;5.996;2023-05-20T03:51:16;21.00;;;13.80;;
20415;SDS011;10367;52.202;5.996;2023-05-20T03:53:46;15.77;;;13.13;;
20415;SDS011;10367;52.202;5.996;2023-05-20T03:56:15;19.90;;;13.80;;
20415;SDS011;10367;52.202;5.996;2023-05-20T03:58:43;20.17;;;13.03;;
20415;SDS011;10367;52.202;5.996;2023-05-20T04:01:13;16.13;;;13.00;;
20415;SDS011;10367;52.202;5.996;2023-05-20T04:03:43;16.40;;;13.30;;
20415;SDS011;10367;52.202;5.996;2023-05-20T04:06:15;19.87;;;14.23;;
20415;SDS011;10367;52.202;5.996;2023-05-20T04:08:50;17.17;;;12.43;;
20415;SDS011;10367;52.202;5.996;2023-05-20T04:11:21;21.67;;;15.00;;
20415;SDS011;10367;52.202;5.996;2023-05-20T04:13:52;22.83;;;16.13;;
20415;SDS011;10367;52.202;5.996;2023-05-20T04:16:23;22.23;;;14.63;;
20415;SDS011;10367;52.202;5.996;2023-05-20T04:18:52;18.83;;;14.67;;
20415;SDS011;10367;52.202;5.996;2023-05-20T04:21:25;14.37;;;12.50;;
20415;SDS011;10367;52.202;5.996;2023-05-20T04:23:55;23.50;;;14.03;;
20415;SDS011;10367;52.202;5.996;2023-05-20T04:26:24;20.60;;;14.90;;
20415;SDS011;10367;52.202;5.996;2023-05-20T04:28:53;21.37;;;14.87;;
20415;SDS011;10367;52.202;5.996;2023-05-20T04:31:25;22.00;;;15.53;;
20415;SDS011;10367;52.202;5.996;2023-05-20T04:33:53;17.47;;;13.90;;
20415;SDS011;10367;52.202;5.996;2023-05-20T04:36:23;26.27;;;16.00;;
20415;SDS011;10367;52.202;5.996;2023-05-20T04:38:56;22.93;;;14.87;;
20415;SDS011;10367;52.202;5.996;2023-05-20T04:41:24;19.97;;;14.80;;
20415;SDS011;10367;52.202;5.996;2023-05-20T04:43:53;23.33;;;15.77;;
20415;SDS011;10367;52.202;5.996;2023-05-20T04:46:25;17.43;;;13.03;;
20415;SDS011;10367;52.202;5.996;2023-05-20T04:48:54;14.03;;;11.80;;
20415;SDS011;10367;52.202;5.996;2023-05-20T04:51:23;24.47;;;14.53;;
20415;SDS011;10367;52.202;5.996;2023-05-20T04:53:52;18.37;;;13.47;;
20415;SDS011;10367;52.202;5.996;2023-05-20T04:56:22;19.63;;;14.73;;
20415;SDS011;10367;52.202;5.996;2023-05-20T04:58:51;18.67;;;13.83;;
20415;SDS011;10367;52.202;5.996;2023-05-20T05:01:21;19.27;;;13.83;;
20415;SDS011;10367;52.202;5.996;2023-05-20T05:03:50;18.80;;;14.23;;
20415;SDS011;10367;52.202;5.996;2023-05-20T05:06:19;19.57;;;14.93;;
20415;SDS011;10367;52.202;5.996;2023-05-20T05:08:48;19.73;;;14.50;;
20415;SDS011;10367;52.202;5.996;2023-05-20T05:11:16;16.80;;;13.30;;
20415;SDS011;10367;52.202;5.996;2023-05-20T05:13:50;16.63;;;13.63;;
20415;SDS011;10367;52.202;5.996;2023-05-20T05:16:21;14.83;;;13.10;;
20415;SDS011;10367;52.202;5.996;2023-05-20T05:18:50;18.50;;;15.17;;
20415;SDS011;10367;52.202;5.996;2023-05-20T05:21:19;17.60;;;13.63;;
20415;SDS011;10367;52.202;5.996;2023-05-20T05:23:48;25.07;;;14.50;;
20415;SDS011;10367;52.202;5.996;2023-05-20T05:26:17;16.50;;;13.40;;
20415;SDS011;10367;52.202;5.996;2023-05-20T05:28:47;13.73;;;12.33;;
20415;SDS011;10367;52.202;5.996;2023-05-20T05:31:17;18.20;;;13.47;;
20415;SDS011;10367;52.202;5.996;2023-05-20T05:33:46;17.50;;;14.07;;
20415;SDS011;10367;52.202;5.996;2023-05-20T05:36:15;19.63;;;15.33;;
20415;SDS011;10367;52.202;5.996;2023-05-20T05:38:46;13.87;;;12.53;;
20415;SDS011;10367;52.202;5.996;2023-05-20T05:41:17;15.00;;;13.57;;
20415;SDS011;10367;52.202;5.996;2023-05-20T05:43:45;15.13;;;13.03;;
20415;SDS011;10367;52.202;5.996;2023-05-20T05:46:14;17.50;;;14.30;;
20415;SDS011;10367;52.202;5.996;2023-05-20T05:48:44;14.37;;;12.97;;
20415;SDS011;10367;52.202;5.996;2023-05-20T05:51:16;15.17;;;13.60;;
20415;SDS011;10367;52.202;5.996;2023-05-20T05:53:44;15.43;;;12.93;;
20415;SDS011;10367;52.202;5.996;2023-05-20T05:56:14;20.73;;;13.10;;
20415;SDS011;10367;52.202;5.996;2023-05-20T05:58:43;12.83;;;11.60;;
20415;SDS011;10367;52.202;5.996;2023-05-20T06:01:14;13.67;;;12.20;;
20415;SDS011;10367;52.202;5.996;2023-05-20T06:03:43;14.17;;;12.77;;
20415;SDS011;10367;52.202;5.996;2023-05-20T06:06:13;15.90;;;13.97;;
20415;SDS011;10367;52.202;5.996;2023-05-20T06:08:42;16.37;;;14.57;;
20415;SDS011;10367;52.202;5.996;2023-05-20T06:11:10;18.10;;;12.83;;
20415;SDS011;10367;52.202;5.996;2023-05-20T06:13:39;15.47;;;13.90;;
20415;SDS011;10367;52.202;5.996;2023-05-20T06:16:08;16.63;;;13.73;;
20415;SDS011;10367;52.202;5.996;2023-05-20T06:18:39;15.30;;;13.37;;
20415;SDS011;10367;52.202;5.996;2023-05-20T06:21:09;13.77;;;12.13;;
20415;SDS011;10367;52.202;5.996;2023-05-20T06:23:41;15.50;;;13.97;;
20415;SDS011;10367;52.202;5.996;2023-05-20T06:26:12;15.17;;;13.53;;
20415;SDS011;10367;52.202;5.996;2023-05-20T06:28:44;20.43;;;15.40;;
20415;SDS011;10367;52.202;5.996;2023-05-20T06:31:13;14.57;;;13.27;;
20415;SDS011;10367;52.202;5.996;2023-05-20T06:33:42;20.17;;;13.67;;
20415;SDS011;10367;52.202;5.996;2023-05-20T06:36:12;15.97;;;14.47;;
20415;SDS011;10367;52.202;5.996;2023-05-20T06:38:41;16.77;;;14.60;;
20415;SDS011;10367;52.202;5.996;2023-05-20T06:41:10;14.97;;;13.67;;
20415;SDS011;10367;52.202;5.996;2023-05-20T06:43:38;15.17;;;13.50;;
20415;SDS011;10367;52.202;5.996;2023-05-20T06:46:07;13.87;;;12.60;;
20415;SDS011;10367;52.202;5.996;2023-05-20T06:48:36;16.93;;;14.63;;
20415;SDS011;10367;52.202;5.996;2023-05-20T06:51:06;16.33;;;14.67;;
20415;SDS011;10367;52.202;5.996;2023-05-20T06:53:36;17.13;;;15.43;;
20415;SDS011;10367;52.202;5.996;2023-05-20T06:56:05;15.87;;;14.47;;
20415;SDS011;10367;52.202;5.996;2023-05-20T06:58:34;18.17;;;14.73;;
20415;SDS011;10367;52.202;5.996;2023-05-20T07:01:03;16.08;;;14.68;;
20415;SDS011;10367;52.202;5.996;2023-05-20T07:03:32;16.53;;;14.87;;
20415;SDS011;10367;52.202;5.996;2023-05-20T07:06:01;15.00;;;13.47;;
20415;SDS011;10367;52.202;5.996;2023-05-20T07:08:30;18.37;;;14.77;;
20415;SDS011;10367;52.202;5.996;2023-05-20T07:11:00;15.53;;;14.30;;
20415;SDS011;10367;52.202;5.996;2023-05-20T07:13:31;19.20;;;17.42;;
20415;SDS011;10367;52.202;5.996;2023-05-20T07:16:00;15.93;;;14.67;;
20415;SDS011;10367;52.202;5.996;2023-05-20T07:18:29;16.93;;;15.50;;
20415;SDS011;10367;52.202;5.996;2023-05-20T07:20:58;16.97;;;15.37;;
20415;SDS011;10367;52.202;5.996;2023-05-20T07:23:27;18.60;;;16.43;;
20415;SDS011;10367;52.202;5.996;2023-05-20T07:25:55;19.42;;;17.55;;
20415;SDS011;10367;52.202;5.996;2023-05-20T07:28:27;17.23;;;15.53;;
20415;SDS011;10367;52.202;5.996;2023-05-20T07:30:55;16.40;;;15.00;;
20415;SDS011;10367;52.202;5.996;2023-05-20T07:33:26;17.37;;;15.60;;
20415;SDS011;10367;52.202;5.996;2023-05-20T07:35:55;19.87;;;17.97;;
20415;SDS011;10367;52.202;5.996;2023-05-20T07:38:24;17.37;;;15.73;;
20415;SDS011;10367;52.202;5.996;2023-05-20T07:40:52;17.83;;;16.30;;
20415;SDS011;10367;52.202;5.996;2023-05-20T07:43:21;17.03;;;15.60;;
20415;SDS011;10367;52.202;5.996;2023-05-20T07:45:52;18.10;;;16.13;;
20415;SDS011;10367;52.202;5.996;2023-05-20T07:48:20;16.20;;;14.63;;
20415;SDS011;10367;52.202;5.996;2023-05-20T07:50:49;18.70;;;16.77;;
20415;SDS011;10367;52.202;5.996;2023-05-20T07:53:18;17.77;;;16.33;;
20415;SDS011;10367;52.202;5.996;2023-05-20T07:55:47;17.20;;;15.80;;
20415;SDS011;10367;52.202;5.996;2023-05-20T07:58:15;17.50;;;16.07;;
20415;SDS011;10367;52.202;5.996;2023-05-20T08:00:44;17.03;;;15.50;;
20415;SDS011;10367;52.202;5.996;2023-05-20T08:03:14;18.67;;;17.07;;
20415;SDS011;10367;52.202;5.996;2023-05-20T08:05:45;17.47;;;15.97;;
20415;SDS011;10367;52.202;5.996;2023-05-20T08:08:14;16.80;;;15.40;;
20415;SDS011;10367;52.202;5.996;2023-05-20T08:10:43;17.97;;;16.53;;
20415;SDS011;10367;52.202;5.996;2023-05-20T08:13:12;16.37;;;15.03;;
20415;SDS011;10367;52.202;5.996;2023-05-20T08:15:40;18.57;;;16.70;;
20415;SDS011;10367;52.202;5.996;2023-05-20T08:18:09;22.53;;;18.40;;
20415;SDS011;10367;52.202;5.996;2023-05-20T08:20:40;17.37;;;15.90;;
20415;SDS011;10367;52.202;5.996;2023-05-20T08:23:09;16.37;;;15.03;;
20415;SDS011;10367;52.202;5.996;2023-05-20T08:25:38;18.47;;;16.77;;
20415;SDS011;10367;52.202;5.996;2023-05-20T08:28:07;18.10;;;16.47;;
20415;SDS011;10367;52.202;5.996;2023-05-20T08:30:36;16.37;;;15.10;;
20415;SDS011;10367;52.202;5.996;2023-05-20T08:33:05;20.57;;;18.70;;
20415;SDS011;10367;52.202;5.996;2023-05-20T08:35:34;19.53;;;17.63;;
20415;SDS011;10367;52.202;5.996;2023-05-20T08:38:06;20.27;;;18.23;;
20415;SDS011;10367;52.202;5.996;2023-05-20T08:40:41;18.67;;;17.20;;
20415;SDS011;10367;52.202;5.996;2023-05-20T08:43:10;18.73;;;17.23;;
20415;SDS011;10367;52.202;5.996;2023-05-20T08:45:39;18.07;;;16.70;;
20415;SDS011;10367;52.202;5.996;2023-05-20T08:48:08;18.20;;;16.70;;
20415;SDS011;10367;52.202;5.996;2023-05-20T08:50:37;18.43;;;17.00;;
20415;SDS011;10367;52.202;5.996;2023-05-20T08:53:08;17.77;;;16.40;;
20415;SDS011;10367;52.202;5.996;2023-05-20T08:55:37;18.53;;;17.10;;
20415;SDS011;10367;52.202;5.996;2023-05-20T08:58:10;18.60;;;16.93;;
20415;SDS011;10367;52.202;5.996;2023-05-20T09:00:41;20.10;;;18.10;;
20415;SDS011;10367;52.202;5.996;2023-05-20T09:03:10;19.07;;;17.03;;
20415;SDS011;10367;52.202;5.996;2023-05-20T09:05:39;19.33;;;17.43;;
20415;SDS011;10367;52.202;5.996;2023-05-20T09:08:09;18.37;;;17.07;;
20415;SDS011;10367;52.202;5.996;2023-05-20T09:10:39;19.03;;;17.10;;
20415;SDS011;10367;52.202;5.996;2023-05-20T09:13:10;19.37;;;17.67;;
20415;SDS011;10367;52.202;5.996;2023-05-20T09:15:39;18.83;;;17.20;;
20415;SDS011;10367;52.202;5.996;2023-05-20T09:18:08;19.70;;;18.20;;
20415;SDS011;10367;52.202;5.996;2023-05-20T09:20:38;17.50;;;16.30;;
20415;SDS011;10367;52.202;5.996;2023-05-20T09:23:07;18.97;;;17.17;;
20415;SDS011;10367;52.202;5.996;2023-05-20T09:25:38;19.60;;;17.83;;
20415;SDS011;10367;52.202;5.996;2023-05-20T09:28:07;18.40;;;17.00;;
20415;SDS011;10367;52.202;5.996;2023-05-20T09:30:37;19.03;;;17.47;;
20415;SDS011;10367;52.202;5.996;2023-05-20T09:33:06;19.70;;;18.10;;
20415;SDS011;10367;52.202;5.996;2023-05-20T09:35:35;19.77;;;18.20;;
20415;SDS011;10367;52.202;5.996;2023-05-20T09:38:04;20.53;;;18.67;;
20415;SDS011;10367;52.202;5.996;2023-05-20T09:40:35;20.03;;;17.97;;
20415;SDS011;10367;52.202;5.996;2023-05-20T09:43:06;19.97;;;18.37;;
20415;SDS011;10367;52.202;5.996;2023-05-20T09:45:37;19.53;;;18.13;;
20415;SDS011;10367;52.202;5.996;2023-05-20T09:48:06;22.23;;;20.17;;
20415;SDS011;10367;52.202;5.996;2023-05-20T09:50:37;20.93;;;19.33;;
20415;SDS011;10367;52.202;5.996;2023-05-20T09:53:07;19.30;;;17.90;;
20415;SDS011;10367;52.202;5.996;2023-05-20T09:55:39;21.00;;;19.10;;
20415;SDS011;10367;52.202;5.996;2023-05-20T09:58:08;19.77;;;18.40;;
20415;SDS011;10367;52.202;5.996;2023-05-20T10:00:42;20.97;;;19.17;;
20415;SDS011;10367;52.202;5.996;2023-05-20T10:03:11;21.43;;;19.37;;
20415;SDS011;10367;52.202;5.996;2023-05-20T10:05:45;20.23;;;18.80;;
20415;SDS011;10367;52.202;5.996;2023-05-20T10:08:20;20.67;;;19.23;;
20415;SDS011;10367;52.202;5.996;2023-05-20T10:11:02;19.90;;;18.53;;
20415;SDS011;10367;52.202;5.996;2023-05-20T10:13:50;22.77;;;21.07;;
20415;SDS011;10367;52.202;5.996;2023-05-20T10:16:37;23.97;;;21.83;;
20415;SDS011;10367;52.202;5.996;2023-05-20T10:19:19;21.60;;;20.03;;
20415;SDS011;10367;52.202;5.996;2023-05-20T10:21:59;21.27;;;19.20;;
20415;SDS011;10367;52.202;5.996;2023-05-20T10:24:29;23.50;;;21.57;;
20415;SDS011;10367;52.202;5.996;2023-05-20T10:27:01;21.23;;;19.13;;
20415;SDS011;10367;52.202;5.996;2023-05-20T10:29:41;23.60;;;21.53;;
20415;SDS011;10367;52.202;5.996;2023-05-20T10:32:10;21.83;;;20.13;;
20415;SDS011;10367;52.202;5.996;2023-05-20T10:34:45;21.77;;;19.97;;
20415;SDS011;10367;52.202;5.996;2023-05-20T10:37:25;20.70;;;19.20;;
20415;SDS011;10367;52.202;5.996;2023-05-20T10:40:06;21.87;;;20.27;;
20415;SDS011;10367;52.202;5.996;2023-05-20T10:42:37;22.10;;;20.20;;
20415;SDS011;10367;52.202;5.996;2023-05-20T10:45:06;21.73;;;20.23;;
20415;SDS011;10367;52.202;5.996;2023-05-20T10:47:36;23.20;;;21.33;;
20415;SDS011;10367;52.202;5.996;2023-05-20T10:50:13;22.23;;;20.57;;
20415;SDS011;10367;52.202;5.996;2023-05-20T10:53:01;20.57;;;19.20;;
20415;SDS011;10367;52.202;5.996;2023-05-20T10:55:34;21.33;;;19.50;;
20415;SDS011;10367;52.202;5.996;2023-05-20T10:58:06;23.13;;;20.73;;
20415;SDS011;10367;52.202;5.996;2023-05-20T11:00:37;22.80;;;20.93;;
20415;SDS011;10367;52.202;5.996;2023-05-20T11:03:06;20.57;;;19.13;;
20415;SDS011;10367;52.202;5.996;2023-05-20T11:05:37;20.67;;;19.17;;
20415;SDS011;10367;52.202;5.996;2023-05-20T11:08:07;20.53;;;19.13;;
20415;SDS011;10367;52.202;5.996;2023-05-20T11:10:55;21.63;;;20.07;;
20415;SDS011;10367;52.202;5.996;2023-05-20T11:13:26;20.27;;;18.77;;
20415;SDS011;10367;52.202;5.996;2023-05-20T11:15:55;22.63;;;20.80;;
20415;SDS011;10367;52.202;5.996;2023-05-20T11:18:25;20.77;;;19.13;;
20415;SDS011;10367;52.202;5.996;2023-05-20T11:20:58;20.57;;;19.07;;
20415;SDS011;10367;52.202;5.996;2023-05-20T11:23:27;22.37;;;20.60;;
20415;SDS011;10367;52.202;5.996;2023-05-20T11:25:57;23.67;;;21.43;;
20415;SDS011;10367;52.202;5.996;2023-05-20T11:28:28;21.47;;;19.80;;
20415;SDS011;10367;52.202;5.996;2023-05-20T11:30:59;22.87;;;20.70;;
20415;SDS011;10367;52.202;5.996;2023-05-20T11:33:28;24.80;;;19.50;;
20415;SDS011;10367;52.202;5.996;2023-05-20T11:35:57;20.63;;;18.97;;
20415;SDS011;10367;52.202;5.996;2023-05-20T11:38:34;23.33;;;21.50;;
20415;SDS011;10367;52.202;5.996;2023-05-20T11:41:03;21.00;;;19.50;;
20415;SDS011;10367;52.202;5.996;2023-05-20T11:43:36;22.27;;;20.60;;
20415;SDS011;10367;52.202;5.996;2023-05-20T11:46:09;20.40;;;19.00;;
20415;SDS011;10367;52.202;5.996;2023-05-20T11:48:38;21.40;;;19.87;;
20415;SDS011;10367;52.202;5.996;2023-05-20T11:51:18;22.40;;;20.93;;
20415;SDS011;10367;52.202;5.996;2023-05-20T11:53:50;21.73;;;20.23;;
20415;SDS011;10367;52.202;5.996;2023-05-20T11:56:19;22.20;;;20.47;;
20415;SDS011;10367;52.202;5.996;2023-05-20T11:59:07;23.43;;;21.73;;
20415;SDS011;10367;52.202;5.996;2023-05-20T12:01:37;23.73;;;22.00;;
20415;SDS011;10367;52.202;5.996;2023-05-20T12:04:10;22.53;;;21.03;;
20415;SDS011;10367;52.202;5.996;2023-05-20T12:06:42;23.57;;;21.27;;
20415;SDS011;10367;52.202;5.996;2023-05-20T12:09:11;23.00;;;21.20;;
20415;SDS011;10367;52.202;5.996;2023-05-20T12:11:41;23.27;;;21.40;;
20415;SDS011;10367;52.202;5.996;2023-05-20T12:14:12;21.67;;;20.23;;
20415;SDS011;10367;52.202;5.996;2023-05-20T12:16:41;23.37;;;21.53;;
20415;SDS011;10367;52.202;5.996;2023-05-20T12:19:10;21.10;;;19.70;;
20415;SDS011;10367;52.202;5.996;2023-05-20T12:21:39;22.50;;;20.73;;
20415;SDS011;10367;52.202;5.996;2023-05-20T12:24:08;21.13;;;19.67;;
20415;SDS011;10367;52.202;5.996;2023-05-20T12:26:37;22.43;;;20.93;;
20415;SDS011;10367;52.202;5.996;2023-05-20T12:29:07;22.93;;;21.07;;
20415;SDS011;10367;52.202;5.996;2023-05-20T12:31:37;22.53;;;20.90;;
20415;SDS011;10367;52.202;5.996;2023-05-20T12:34:06;21.93;;;20.40;;
20415;SDS011;10367;52.202;5.996;2023-05-20T12:36:36;20.97;;;19.57;;
20415;SDS011;10367;52.202;5.996;2023-05-20T12:39:05;21.90;;;20.23;;
20415;SDS011;10367;52.202;5.996;2023-05-20T12:41:36;22.37;;;20.67;;
20415;SDS011;10367;52.202;5.996;2023-05-20T12:44:05;22.50;;;20.70;;
20415;SDS011;10367;52.202;5.996;2023-05-20T12:46:34;20.93;;;19.53;;
20415;SDS011;10367;52.202;5.996;2023-05-20T12:49:05;22.47;;;20.63;;
20415;SDS011;10367;52.202;5.996;2023-05-20T12:51:35;22.47;;;20.87;;
20415;SDS011;10367;52.202;5.996;2023-05-20T12:54:04;23.97;;;21.13;;
20415;SDS011;10367;52.202;5.996;2023-05-20T12:56:35;24.43;;;22.27;;
20415;SDS011;10367;52.202;5.996;2023-05-20T12:59:07;22.63;;;20.83;;
20415;SDS011;10367;52.202;5.996;2023-05-20T13:01:42;22.53;;;20.93;;
20415;SDS011;10367;52.202;5.996;2023-05-20T13:04:12;23.23;;;21.57;;
20415;SDS011;10367;52.202;5.996;2023-05-20T13:06:44;22.73;;;21.23;;
20415;SDS011;10367;52.202;5.996;2023-05-20T13:09:13;22.80;;;21.13;;
20415;SDS011;10367;52.202;5.996;2023-05-20T13:11:43;22.77;;;21.17;;
20415;SDS011;10367;52.202;5.996;2023-05-20T13:14:12;23.13;;;21.23;;
20415;SDS011;10367;52.202;5.996;2023-05-20T13:16:43;25.13;;;23.03;;
20415;SDS011;10367;52.202;5.996;2023-05-20T13:19:14;23.20;;;21.10;;
20415;SDS011;10367;52.202;5.996;2023-05-20T13:21:42;23.37;;;21.50;;
20415;SDS011;10367;52.202;5.996;2023-05-20T13:24:11;24.60;;;22.53;;
20415;SDS011;10367;52.202;5.996;2023-05-20T13:26:40;22.83;;;21.10;;
20415;SDS011;10367;52.202;5.996;2023-05-20T13:29:09;22.53;;;21.07;;
20415;SDS011;10367;52.202;5.996;2023-05-20T13:31:38;22.30;;;20.70;;
20415;SDS011;10367;52.202;5.996;2023-05-20T13:34:07;22.53;;;21.03;;
20415;SDS011;10367;52.202;5.996;2023-05-20T13:36:37;22.67;;;21.17;;
20415;SDS011;10367;52.202;5.996;2023-05-20T13:39:06;22.40;;;20.87;;
20415;SDS011;10367;52.202;5.996;2023-05-20T13:41:36;23.63;;;21.93;;
20415;SDS011;10367;52.202;5.996;2023-05-20T13:44:05;22.10;;;20.67;;
20415;SDS011;10367;52.202;5.996;2023-05-20T13:46:34;24.43;;;21.87;;
20415;SDS011;10367;52.202;5.996;2023-05-20T13:49:02;23.43;;;21.33;;
20415;SDS011;10367;52.202;5.996;2023-05-20T13:51:31;22.40;;;20.83;;
20415;SDS011;10367;52.202;5.996;2023-05-20T13:54:01;23.37;;;21.77;;
20415;SDS011;10367;52.202;5.996;2023-05-20T13:56:30;21.47;;;19.77;;
20415;SDS011;10367;52.202;5.996;2023-05-20T13:58:59;23.97;;;22.17;;
20415;SDS011;10367;52.202;5.996;2023-05-20T14:01:28;22.77;;;21.10;;
20415;SDS011;10367;52.202;5.996;2023-05-20T14:03:58;22.07;;;20.67;;
20415;SDS011;10367;52.202;5.996;2023-05-20T14:06:28;23.47;;;21.07;;
20415;SDS011;10367;52.202;5.996;2023-05-20T14:08:57;21.73;;;20.33;;
20415;SDS011;10367;52.202;5.996;2023-05-20T14:11:28;24.83;;;22.47;;
20415;SDS011;10367;52.202;5.996;2023-05-20T14:14:02;23.63;;;21.93;;
20415;SDS011;10367;52.202;5.996;2023-05-20T14:16:32;23.27;;;21.43;;
20415;SDS011;10367;52.202;5.996;2023-05-20T14:19:01;23.13;;;21.03;;
20415;SDS011;10367;52.202;5.996;2023-05-20T14:21:36;23.83;;;21.93;;
20415;SDS011;10367;52.202;5.996;2023-05-20T14:24:05;22.13;;;20.63;;
20415;SDS011;10367;52.202;5.996;2023-05-20T14:26:36;22.93;;;21.17;;
20415;SDS011;10367;52.202;5.996;2023-05-20T14:29:04;22.40;;;20.90;;
20415;SDS011;10367;52.202;5.996;2023-05-20T14:31:37;22.20;;;20.60;;
20415;SDS011;10367;52.202;5.996;2023-05-20T14:34:05;23.00;;;21.40;;
20415;SDS011;10367;52.202;5.996;2023-05-20T14:36:34;23.87;;;21.83;;
20415;SDS011;10367;52.202;5.996;2023-05-20T14:39:03;22.93;;;21.07;;